Station Historical Data
 
Daily Summary for March 20, 2019 Units:  English    Metric   Both
« Previous Day
Next Day »
Daily Weekly Monthly Yearly Custom
  Current: High: Low: Average:
Temperature: 49.8 °F 51.6 °F 46 °F 48.4 °F
Dew Point: 45.9 °F 45.9 °F 41.5 °F 42.6 °F
Humidity: 86% 89% 70% 81%
Wind Speed: 5mph 9mph 1mph 4mph
Wind Gust: 14mph 30mph - -
WindNNW - - West
Pressure: 30.3 in 30.3 in 30.2 in -
Precipitation: 0.3 in      
Historical Graphs
 
 
Tabular Data for March 20, 2019
Time Temperature Dew Point Pressure Wind Wind Speed Wind Gust Humidity Rainfall Rate (Hourly) solar Conditions
00:00 51.6 °F 42.4 °F 30.3 in NNW 1 mph 5 mph 71% 0 in 0.00 W/m2 CLR
00:05 51.6 °F 42.1 °F 30.3 in NNW 1 mph 5 mph 70% 0 in 0.00 W/m2 CLR
00:10 51.6 °F 42.1 °F 30.3 in NNW 2 mph 6 mph 70% 0 in 0.00 W/m2 CLR
00:15 51.4 °F 42.1 °F 30.3 in North 2 mph 4 mph 70% 0 in 0.00 W/m2 CLR
00:20 51.4 °F 42.1 °F 30.3 in NNW 1 mph 5 mph 70% 0 in 0.00 W/m2 CLR
00:25 51.3 °F 41.9 °F 30.3 in NNW 2 mph 8 mph 70% 0 in 0.00 W/m2 CLR
00:35 51.3 °F 41.7 °F 30.3 in NW 2 mph 3 mph 70% 0 in 0.00 W/m2 CLR
00:40 51.1 °F 42.1 °F 30.3 in NNW 1 mph 6 mph 71% 0 in 0.00 W/m2 CLR
00:45 51.1 °F 42.1 °F 30.3 in NNW 1 mph 5 mph 71% 0 in 0.00 W/m2 CLR
00:55 51.1 °F 41.9 °F 30.3 in NW 1 mph 5 mph 71% 0 in 0.00 W/m2 CLR
01:05 51.1 °F 41.9 °F 30.3 in NNW 2 mph 5 mph 71% 0 in 0.00 W/m2 CLR
01:15 50.9 °F 41.7 °F 30.3 in NNW 2 mph 5 mph 71% 0 in 0.00 W/m2 CLR
01:20 50.9 °F 41.7 °F 30.3 in NNW 2 mph 5 mph 71% 0 in 0.00 W/m2 CLR
01:25 50.9 °F 41.7 °F 30.3 in NNW 2 mph 4 mph 71% 0 in 0.00 W/m2 CLR
01:35 50.7 °F 41.7 °F 30.3 in NNW 2 mph 5 mph 71% 0 in 0.00 W/m2 CLR
01:45 50.7 °F 41.5 °F 30.3 in NW 2 mph 7 mph 71% 0 in 0.00 W/m2 CLR
01:50 50.7 °F 41.5 °F 30.3 in NNW 2 mph 9 mph 71% 0 in 0.00 W/m2 CLR
01:55 50.7 °F 41.5 °F 30.3 in NW 2 mph 8 mph 71% 0 in 0.00 W/m2 CLR
02:05 50.7 °F 41.7 °F 30.3 in WNW 3 mph 7 mph 71% 0 in 0.00 W/m2 CLR
02:15 50.9 °F 41.7 °F 30.3 in NW 2 mph 5 mph 71% 0 in 0.00 W/m2 CLR
02:20 50.9 °F 42.3 °F 30.3 in NNE 1 mph 3 mph 72% 0 in 0.00 W/m2 CLR
02:25 50.9 °F 42.3 °F 30.3 in North 3 mph 12 mph 72% 0 in 0.00 W/m2 CLR
02:30 51.1 °F 42.3 °F 30.3 in North 3 mph 6 mph 72% 0 in 0.00 W/m2 CLR
02:35 51.1 °F 42.4 °F 30.3 in NNE 3 mph 6 mph 72% 0 in 0.00 W/m2 CLR
02:45 51.3 °F 42.4 °F 30.3 in NNE 3 mph 5 mph 72% 0 in 0.00 W/m2 CLR
02:50 51.1 °F 42.4 °F 30.2 in NNE 1 mph 3 mph 72% 0 in 0.00 W/m2 CLR
03:00 51.1 °F 42.3 °F 30.2 in North 2 mph 5 mph 72% 0 in 0.00 W/m2 CLR
03:05 51.1 °F 42.3 °F 30.2 in NE 1 mph 6 mph 72% 0 in 0.00 W/m2 CLR
03:15 51.1 °F 42.6 °F 30.3 in NE 5 mph 10 mph 73% 0 in 0.00 W/m2 CLR
03:25 49.6 °F 42.4 °F 30.3 in NE 5 mph 21 mph 76% 0.03 in 0.00 W/m2 RA
03:35 48.4 °F 42.6 °F 30.3 in North 6 mph 12 mph 80% 0.02 in 0.00 W/m2 RA
03:40 48 °F 42.4 °F 30.3 in NNW 5 mph 9 mph 81% 0.02 in 0.00 W/m2 RA
03:50 47.3 °F 42.4 °F 30.2 in WNW 7 mph 12 mph 83% 0.01 in 0.00 W/m2 RA
04:00 46.6 °F 42.3 °F 30.2 in NW 9 mph 16 mph 85% 0 in 0.00 W/m2 RA
04:05 46.4 °F 42.1 °F 30.2 in NW 3 mph 10 mph 85% 0.01 in 0.00 W/m2 RA
04:15 46.4 °F 42.4 °F 30.2 in WNW 1 mph 6 mph 86% 0 in 0.00 W/m2
04:25 46.2 °F 42.3 °F 30.2 in NW 2 mph 6 mph 86% 0 in 0.00 W/m2
04:30 46.4 °F 42.4 °F 30.2 in NNW 3 mph 8 mph 86% 0 in 0.00 W/m2
04:35 46.6 °F 42.4 °F 30.2 in North 2 mph 5 mph 86% 0 in 0.00 W/m2
04:40 46.4 °F 42.4 °F 30.2 in WNW 2 mph 6 mph 86% 0 in 0.00 W/m2
04:45 46.6 °F 42.4 °F 30.2 in NW 2 mph 8 mph 86% 0 in 0.00 W/m2
04:55 46.6 °F 42.3 °F 30.2 in WNW 2 mph 7 mph 85% 0 in 0.00 W/m2
05:00 46.6 °F 42.3 °F 30.2 in WNW 3 mph 12 mph 85% 0 in 0.00 W/m2
05:05 46.6 °F 42.3 °F 30.2 in NW 3 mph 8 mph 85% 0 in 0.00 W/m2 CLR
05:15 46.9 °F 42.6 °F 30.2 in NNW 3 mph 12 mph 85% 0 in 0.00 W/m2 CLR
05:25 47.3 °F 43.3 °F 30.2 in WNW 2 mph 7 mph 86% 0 in 0.00 W/m2 CLR
05:35 47.5 °F 43.5 °F 30.2 in NNE 3 mph 12 mph 86% 0 in 0.00 W/m2 CLR
05:40 47.7 °F 43.5 °F 30.2 in NW 8 mph 13 mph 86% 0 in 0.00 W/m2 CLR
05:45 47.7 °F 43.5 °F 30.2 in NW 3 mph 17 mph 86% 0 in 0.00 W/m2 CLR
05:55 47.7 °F 43.7 °F 30.2 in WNW 5 mph 12 mph 86% 0 in 0.00 W/m2 CLR
06:00 47.7 °F 43.5 °F 30.2 in WNW 5 mph 12 mph 86% 0 in 0.00 W/m2 CLR
06:05 47.7 °F 43.7 °F 30.2 in NW 7 mph 16 mph 86% 0 in 0.00 W/m2 CLR
06:10 47.7 °F 43.3 °F 30.2 in NW 3 mph 10 mph 85% 0 in 0.00 W/m2 CLR
06:15 47.7 °F 43.3 °F 30.2 in NW 5 mph 7 mph 85% 0 in 0.00 W/m2 CLR
06:25 47.8 °F 43.2 °F 30.2 in NW 6 mph 13 mph 84% 0 in 0.00 W/m2 CLR
06:30 47.8 °F 43.2 °F 30.2 in NW 2 mph 10 mph 84% 0 in 0.00 W/m2 CLR
06:35 47.8 °F 43 °F 30.2 in NNW 2 mph 6 mph 83% 0 in 0.00 W/m2 CLR
06:40 47.8 °F 43 °F 30.2 in NE 2 mph 10 mph 83% 0 in 0.00 W/m2 CLR
06:45 47.8 °F 43 °F 30.3 in North 3 mph 10 mph 83% 0 in 0.00 W/m2 CLR
06:50 47.8 °F 42.6 °F 30.3 in North 3 mph 12 mph 82% 0 in 0.00 W/m2 CLR
07:00 48 °F 42.4 °F 30.3 in NNE 6 mph 10 mph 81% 0 in 0.00 W/m2 OVC
07:05 48 °F 42.4 °F 30.3 in North 6 mph 14 mph 81% 0 in 0.00 W/m2 OVC
07:10 48 °F 42.3 °F 30.3 in NNW 5 mph 12 mph 80% 0 in 0.00 W/m2 OVC
07:15 48.2 °F 42.3 °F 30.3 in North 7 mph 12 mph 80% 0 in 0.00 W/m2 OVC
07:25 48.4 °F 42.6 °F 30.3 in North 9 mph 17 mph 81% 0.02 in 6.00 W/m2 RA
07:30 47.8 °F 42.6 °F 30.3 in North 7 mph 16 mph 82% 0.01 in 6.00 W/m2 RA
07:35 47.7 °F 42.6 °F 30.3 in North 7 mph 17 mph 83% 0.02 in 6.00 W/m2 RA
07:45 46.9 °F 42.6 °F 30.3 in North 7 mph 23 mph 85% 0.02 in 10.80 W/m2 RA
07:55 46.6 °F 42.6 °F 30.3 in NW 5 mph 13 mph 86% 0.01 in 52.80 W/m2 RA
08:00 46.6 °F 42.4 °F 30.3 in NW 5 mph 14 mph 86% 0 in 84.00 W/m2 RA
08:05 46.4 °F 42.8 °F 30.3 in WNW 5 mph 10 mph 87% 0 in 67.20 W/m2 SCT
08:15 46.6 °F 42.8 °F 30.3 in NW 8 mph 16 mph 87% 0 in 61.20 W/m2 BKN
08:20 46.8 °F 43 °F 30.3 in West 6 mph 13 mph 87% 0 in 63.60 W/m2 BKN
08:25 46.8 °F 42.8 °F 30.3 in WNW 5 mph 12 mph 86% 0 in 21.60 W/m2 OVC
08:35 46.9 °F 43 °F 30.3 in NNW 8 mph 20 mph 86% 0.01 in 67.20 W/m2 RA
08:40 46.9 °F 43 °F 30.3 in NNW 9 mph 30 mph 86% 0.01 in 46.80 W/m2 RA
08:45 46.9 °F 43 °F 30.3 in NW 8 mph 21 mph 86% 0.02 in 72.00 W/m2 RA
08:55 46.6 °F 42.6 °F 30.3 in NW 8 mph 17 mph 86% 0 in 36.00 W/m2 RA
09:00 46.6 °F 42.6 °F 30.3 in NNW 9 mph 17 mph 86% 0.02 in 36.00 W/m2 RA
09:05 46.6 °F 42.8 °F 30.3 in NNW 7 mph 16 mph 87% 0.01 in 42.00 W/m2 RA
09:10 46.6 °F 42.8 °F 30.3 in North 5 mph 15 mph 87% 0.01 in 38.40 W/m2 RA
09:15 46.2 °F 42.6 °F 30.3 in NNW 9 mph 15 mph 87% 0.01 in 58.80 W/m2 RA
09:25 46.2 °F 43 °F 30.3 in NNW 5 mph 10 mph 88% 0 in 86.40 W/m2 RA
09:30 46.2 °F 43 °F 30.3 in NW 3 mph 9 mph 88% 0.01 in 78.00 W/m2 RA
09:40 46 °F 42.6 °F 30.3 in NW 5 mph 10 mph 88% 0 in 133.20 W/m2 OVC
09:45 46 °F 42.6 °F 30.3 in NW 3 mph 8 mph 88% 0 in 231.60 W/m2 SCT
09:50 46 °F 42.6 °F 30.3 in WNW 2 mph 8 mph 88% 0 in 250.80 W/m2 SCT
09:55 46.4 °F 43.3 °F 30.3 in WNW 3 mph 9 mph 89% 0 in 253.20 W/m2 SCT
10:05 46.9 °F 43.9 °F 30.3 in NW 2 mph 7 mph 89% 0 in 362.40 W/m2 FEW
10:10 47.3 °F 44.2 °F 30.3 in NNW 5 mph 13 mph 89% 0 in 208.80 W/m2 BKN
10:15 47.5 °F 44.1 °F 30.3 in NW 3 mph 12 mph 88% 0 in 187.20 W/m2 OVC
10:25 47.8 °F 44.4 °F 30.3 in NNW 5 mph 12 mph 88% 0 in 264.00 W/m2 BKN
10:30 48 °F 44.8 °F 30.3 in North 6 mph 12 mph 88% 0 in 334.80 W/m2 SCT
10:35 48.4 °F 45 °F 30.3 in NNW 6 mph 12 mph 88% 0 in 306.00 W/m2 SCT
10:45 49.1 °F 45.1 °F 30.3 in NW 5 mph 12 mph 86% 0 in 712.80 W/m2 CLR
10:50 49.8 °F 45.9 °F 30.3 in NNW 5 mph 14 mph 86% 0 in 698.40 W/m2 CLR
Juneau County Weather
Compliments of Weather Underground - 12.5 mb

past weather